createdAt,value
2023-01-28T00:00:13.785Z,2.20
2023-01-28T00:02:41.772Z,2.27
2023-01-28T00:05:10.018Z,2.43
2023-01-28T00:07:39.384Z,3.53
2023-01-28T00:10:08.182Z,3.87
2023-01-28T00:12:36.179Z,2.90
2023-01-28T00:15:04.224Z,1.60
2023-01-28T00:17:32.135Z,2.43
2023-01-28T00:20:00.119Z,4.00
2023-01-28T00:22:28.068Z,4.00
2023-01-28T00:24:57.371Z,3.20
2023-01-28T00:27:25.323Z,1.87
2023-01-28T00:29:55.534Z,4.33
2023-01-28T00:32:23.465Z,1.87
2023-01-28T00:34:51.343Z,1.63
2023-01-28T00:37:19.284Z,1.57
2023-01-28T00:39:47.182Z,3.80
2023-01-28T00:42:16.659Z,2.60
2023-01-28T00:44:44.662Z,2.83
2023-01-28T00:47:12.555Z,3.33
2023-01-28T00:49:40.460Z,3.13
2023-01-28T00:52:08.401Z,4.40
2023-01-28T00:54:36.698Z,4.83
2023-01-28T00:57:04.696Z,2.43
2023-01-28T00:59:33.966Z,2.47
2023-01-28T01:02:12.491Z,2.07
2023-01-28T01:04:40.709Z,2.80
2023-01-28T01:07:08.729Z,2.13
2023-01-28T01:09:36.641Z,2.93
2023-01-28T01:12:04.663Z,4.23
2023-01-28T01:14:34.394Z,2.47
2023-01-28T01:17:02.315Z,3.07
2023-01-28T01:19:30.234Z,3.63
2023-01-28T01:21:58.287Z,2.50
2023-01-28T01:24:29.743Z,4.17
2023-01-28T01:26:57.688Z,2.17
2023-01-28T01:29:25.683Z,2.57
2023-01-28T01:31:55.485Z,5.13
2023-01-28T01:34:23.511Z,5.33
2023-01-28T01:36:51.403Z,4.30
2023-01-28T01:39:19.559Z,4.33
2023-01-28T01:41:47.492Z,2.33
2023-01-28T01:45:04.261Z,2.23
2023-01-28T01:47:42.161Z,2.13
2023-01-28T01:50:15.651Z,1.73
2023-01-28T01:52:44.171Z,1.67
2023-01-28T01:55:17.935Z,3.03
2023-01-28T01:57:47.254Z,2.37
2023-01-28T02:00:15.631Z,1.67
2023-01-28T02:02:47.427Z,2.87
2023-01-28T02:05:18.137Z,2.27
2023-01-28T02:07:47.348Z,1.40
2023-01-28T02:10:15.919Z,3.20
2023-01-28T02:12:45.546Z,3.17
2023-01-28T02:15:16.319Z,1.60
2023-01-28T02:17:46.052Z,1.70
2023-01-28T02:20:16.000Z,1.70
2023-01-28T02:23:05.431Z,1.63
2023-01-28T02:26:14.007Z,2.30
2023-01-28T02:28:46.686Z,1.17
2023-01-28T02:31:19.189Z,4.43
2023-01-28T02:33:53.900Z,1.97
2023-01-28T02:36:28.519Z,4.23
2023-01-28T02:39:00.199Z,2.33
2023-01-28T02:41:33.188Z,2.37
2023-01-28T02:44:03.212Z,1.83
2023-01-28T02:46:55.913Z,4.30
2023-01-28T02:49:28.341Z,1.50
2023-01-28T02:52:20.156Z,3.43
2023-01-28T02:54:55.047Z,2.10
2023-01-28T02:57:31.758Z,2.37
2023-01-28T03:00:05.336Z,1.83
2023-01-28T03:02:37.468Z,3.40
2023-01-28T03:05:08.040Z,3.70
2023-01-28T03:07:37.142Z,1.70
2023-01-28T03:10:07.270Z,1.37
2023-01-28T03:12:54.464Z,1.37
2023-01-28T03:15:44.208Z,1.77
2023-01-28T03:18:31.788Z,3.20
2023-01-28T03:21:23.245Z,3.63
2023-01-28T03:24:12.575Z,2.73
2023-01-28T03:27:03.709Z,3.07
2023-01-28T03:29:50.801Z,1.70
2023-01-28T03:32:38.444Z,4.53
2023-01-28T03:35:25.441Z,2.20
2023-01-28T03:37:53.540Z,2.53
2023-01-28T03:40:21.510Z,2.37
2023-01-28T03:42:49.407Z,2.40
2023-01-28T03:45:17.616Z,2.10
2023-01-28T03:47:47.103Z,3.10
2023-01-28T03:50:15.032Z,4.57
2023-01-28T03:52:42.964Z,2.60
2023-01-28T03:55:14.897Z,2.13
2023-01-28T03:57:44.871Z,2.83
2023-01-28T04:00:14.325Z,4.53
2023-01-28T04:02:42.256Z,3.03
2023-01-28T04:05:13.880Z,3.00
2023-01-28T04:07:42.184Z,3.10
2023-01-28T04:10:11.271Z,3.27
2023-01-28T04:12:39.157Z,2.60
2023-01-28T04:15:15.689Z,3.57
2023-01-28T04:17:48.049Z,3.73
2023-01-28T04:20:18.643Z,2.13
2023-01-28T04:22:46.592Z,2.20
2023-01-28T04:25:15.000Z,2.33
2023-01-28T04:27:43.130Z,2.93
2023-01-28T04:30:12.126Z,4.63
2023-01-28T04:32:40.090Z,2.57
2023-01-28T04:35:08.583Z,5.00
2023-01-28T04:37:37.849Z,1.63
2023-01-28T04:40:06.606Z,2.20
2023-01-28T04:42:34.534Z,2.43
2023-01-28T04:45:02.453Z,1.50
2023-01-28T04:47:30.342Z,2.47
2023-01-28T04:49:58.359Z,3.47
2023-01-28T04:52:26.244Z,1.50
2023-01-28T04:54:55.878Z,2.53
2023-01-28T04:57:23.814Z,2.23
2023-01-28T04:59:51.724Z,3.40
2023-01-28T05:02:19.632Z,5.37
2023-01-28T05:04:47.601Z,4.37
2023-01-28T05:07:15.495Z,1.70
2023-01-28T05:09:43.426Z,2.20
2023-01-28T05:12:12.744Z,2.00
2023-01-28T05:14:40.629Z,2.63
2023-01-28T05:17:08.634Z,3.27
2023-01-28T05:19:36.548Z,2.97
2023-01-28T05:22:04.460Z,3.43
2023-01-28T05:24:32.490Z,1.67
2023-01-28T05:27:00.581Z,4.93
2023-01-28T05:29:29.859Z,3.33
2023-01-28T05:31:57.768Z,2.67
2023-01-28T05:34:25.944Z,1.67
2023-01-28T05:36:53.821Z,4.27
2023-01-28T05:39:21.721Z,4.27
2023-01-28T05:41:49.603Z,3.57
2023-01-28T05:44:17.532Z,2.80
2023-01-28T05:46:46.810Z,3.23
2023-01-28T05:49:14.992Z,4.07
2023-01-28T05:51:43.256Z,2.73
2023-01-28T05:54:11.435Z,3.70
2023-01-28T05:56:40.381Z,2.30
2023-01-28T05:59:10.376Z,1.77
2023-01-28T06:01:38.278Z,3.23
2023-01-28T06:04:07.610Z,3.20
2023-01-28T06:06:35.510Z,2.83
2023-01-28T06:09:03.478Z,1.90
2023-01-28T06:11:31.397Z,2.33
2023-01-28T06:13:59.381Z,2.23
2023-01-28T06:16:27.335Z,4.50
2023-01-28T06:18:55.257Z,3.37
2023-01-28T06:21:24.602Z,3.80
2023-01-28T06:23:52.523Z,2.27
2023-01-28T06:26:20.458Z,5.60
2023-01-28T06:28:48.573Z,3.53
2023-01-28T06:31:16.485Z,2.67
2023-01-28T06:33:44.591Z,5.43
2023-01-28T06:36:12.547Z,3.10
2023-01-28T06:38:41.939Z,3.97
2023-01-28T06:41:09.847Z,2.10
2023-01-28T06:43:37.814Z,5.33
2023-01-28T06:46:06.194Z,3.57
2023-01-28T06:48:34.354Z,5.53
2023-01-28T06:51:02.269Z,5.60
2023-01-28T06:53:30.215Z,3.37
2023-01-28T06:55:59.550Z,3.00
2023-01-28T06:58:27.421Z,3.70
2023-01-28T07:00:55.493Z,3.03
2023-01-28T07:03:23.370Z,2.87
2023-01-28T07:05:51.387Z,4.03
2023-01-28T07:08:19.308Z,3.30
2023-01-28T07:10:47.194Z,4.00
2023-01-28T07:13:16.560Z,2.80
2023-01-28T07:15:44.463Z,5.73
2023-01-28T07:18:12.381Z,4.77
2023-01-28T07:20:40.292Z,3.20
2023-01-28T07:23:08.496Z,3.83
2023-01-28T07:25:36.427Z,4.27
2023-01-28T07:28:04.310Z,5.80
2023-01-28T07:30:33.670Z,8.23
2023-01-28T07:33:02.250Z,3.70
2023-01-28T07:35:30.287Z,5.17
2023-01-28T07:37:59.565Z,6.93
2023-01-28T07:40:28.791Z,4.00
2023-01-28T07:42:56.847Z,4.40
2023-01-28T07:45:25.780Z,6.60
2023-01-28T07:47:59.259Z,5.57
2023-01-28T07:50:29.152Z,3.40
2023-01-28T07:52:57.119Z,4.07
2023-01-28T07:55:25.355Z,7.40
2023-01-28T07:57:54.558Z,8.00
2023-01-28T08:00:23.831Z,5.63
2023-01-28T08:02:52.383Z,5.70
2023-01-28T08:05:22.615Z,4.23
2023-01-28T08:07:50.741Z,4.50
2023-01-28T08:10:19.773Z,7.07
2023-01-28T08:12:54.467Z,8.73
2023-01-28T08:15:22.647Z,6.00
2023-01-28T08:17:50.645Z,9.63
2023-01-28T08:20:18.955Z,5.70
2023-01-28T08:22:48.267Z,6.87
2023-01-28T08:25:18.556Z,9.27
2023-01-28T08:27:46.551Z,5.27
2023-01-28T08:30:15.356Z,4.07
2023-01-28T08:32:43.498Z,12.63
2023-01-28T08:35:11.429Z,7.17
2023-01-28T08:37:39.314Z,4.67
2023-01-28T08:40:10.429Z,5.63
2023-01-28T08:42:38.440Z,7.33
2023-01-28T08:45:07.690Z,9.93
2023-01-28T08:47:35.609Z,9.23
2023-01-28T08:50:03.510Z,8.07
2023-01-28T08:52:31.413Z,8.43
2023-01-28T08:54:59.292Z,8.43
2023-01-28T08:57:28.583Z,18.77
2023-01-28T08:59:56.545Z,11.07
2023-01-28T09:02:31.492Z,8.10
2023-01-28T09:05:00.588Z,13.07
2023-01-28T09:07:28.526Z,10.33
2023-01-28T09:09:56.437Z,10.73
2023-01-28T09:12:24.491Z,8.77
2023-01-28T09:14:54.009Z,12.00
2023-01-28T09:17:22.300Z,12.63
2023-01-28T09:19:50.305Z,10.23
2023-01-28T09:22:18.762Z,9.17
2023-01-28T09:24:46.653Z,8.57
2023-01-28T09:27:14.630Z,9.33
2023-01-28T09:29:42.549Z,11.10
2023-01-28T09:32:11.878Z,9.57
2023-01-28T09:34:40.606Z,8.43
2023-01-28T09:37:08.531Z,9.07
2023-01-28T09:39:36.397Z,11.40
2023-01-28T09:42:22.760Z,8.80
2023-01-28T09:45:02.157Z,8.87
2023-01-28T09:47:35.419Z,9.73
2023-01-28T09:50:06.999Z,7.70
2023-01-28T09:52:37.339Z,11.93
2023-01-28T09:55:11.563Z,12.57
2023-01-28T09:57:43.194Z,9.20
2023-01-28T10:00:15.871Z,9.93
2023-01-28T10:02:56.644Z,13.53
2023-01-28T10:05:29.372Z,9.10
2023-01-28T10:08:04.590Z,13.03
2023-01-28T10:10:35.935Z,11.60
2023-01-28T10:13:13.444Z,11.00
2023-01-28T10:15:53.998Z,13.53
2023-01-28T10:18:31.590Z,14.73
2023-01-28T10:21:04.146Z,9.53
2023-01-28T10:23:41.069Z,8.53
2023-01-28T10:26:18.132Z,13.03
2023-01-28T10:28:46.454Z,9.67
2023-01-28T10:31:15.443Z,12.63
2023-01-28T10:33:44.819Z,15.40
2023-01-28T10:36:12.848Z,17.63
2023-01-28T10:38:41.031Z,10.90
2023-01-28T10:41:12.711Z,10.80
2023-01-28T10:43:41.770Z,12.23
2023-01-28T10:46:13.381Z,9.60
2023-01-28T10:48:46.919Z,9.03
2023-01-28T10:51:15.530Z,9.60
2023-01-28T10:53:44.933Z,21.70
2023-01-28T10:56:16.379Z,11.67
2023-01-28T10:58:58.384Z,13.97
2023-01-28T11:01:26.416Z,9.70
2023-01-28T11:03:57.971Z,10.80
2023-01-28T11:06:27.300Z,11.20
2023-01-28T11:09:20.851Z,14.90
2023-01-28T11:11:48.749Z,9.70
2023-01-28T11:14:22.198Z,11.33
2023-01-28T11:16:51.212Z,13.57
2023-01-28T11:19:22.318Z,9.80
2023-01-28T11:21:50.996Z,10.77
2023-01-28T11:24:23.381Z,8.80
2023-01-28T11:26:53.683Z,12.20
2023-01-28T11:29:26.390Z,10.63
2023-01-28T11:31:54.592Z,11.37
2023-01-28T11:34:27.557Z,10.10
2023-01-28T11:37:01.902Z,10.00
2023-01-28T11:39:29.898Z,10.37
2023-01-28T11:42:05.501Z,12.30
2023-01-28T11:44:33.512Z,16.67
2023-01-28T11:47:20.350Z,10.60
2023-01-28T11:50:01.615Z,13.07
2023-01-28T11:53:05.034Z,10.10
2023-01-28T11:55:41.963Z,9.80
2023-01-28T11:58:21.311Z,9.77
2023-01-28T12:00:55.495Z,9.17
2023-01-28T12:03:43.312Z,10.27
2023-01-28T12:06:30.132Z,13.03
2023-01-28T12:09:07.757Z,10.17
2023-01-28T12:12:10.716Z,13.47
2023-01-28T12:14:47.059Z,16.20
2023-01-28T12:17:25.411Z,11.47
2023-01-28T12:20:12.157Z,11.07
2023-01-28T12:23:07.723Z,12.63
2023-01-28T12:25:48.192Z,16.50
2023-01-28T12:28:21.993Z,11.13
2023-01-28T12:31:03.094Z,10.53
2023-01-28T12:33:42.753Z,11.50
2023-01-28T12:36:21.120Z,12.17
2023-01-28T12:39:02.071Z,16.23
2023-01-28T12:41:32.137Z,13.67
2023-01-28T12:44:02.585Z,11.53
2023-01-28T12:46:40.718Z,12.27
2023-01-28T12:49:14.676Z,13.40
2023-01-28T12:51:52.242Z,12.47
2023-01-28T12:54:26.012Z,12.00
2023-01-28T12:57:34.931Z,10.93
2023-01-28T13:00:08.794Z,15.43
2023-01-28T13:02:40.900Z,11.03
2023-01-28T13:05:12.448Z,13.73
2023-01-28T13:07:42.749Z,10.53
2023-01-28T13:10:19.030Z,9.97
2023-01-28T13:12:48.136Z,13.43
2023-01-28T13:15:18.610Z,12.90
2023-01-28T13:17:56.411Z,10.87
2023-01-28T13:20:48.945Z,11.50
2023-01-28T13:23:25.774Z,9.43
2023-01-28T13:25:56.638Z,9.13
2023-01-28T13:28:29.627Z,12.33
2023-01-28T13:31:03.622Z,11.03
2023-01-28T13:33:33.724Z,16.77
2023-01-28T13:36:05.179Z,15.73
2023-01-28T13:38:34.133Z,13.67
2023-01-28T13:41:06.504Z,19.93
2023-01-28T13:43:39.150Z,16.70
2023-01-28T13:46:09.210Z,14.30
2023-01-28T13:48:42.994Z,12.67
2023-01-28T13:51:18.768Z,17.20
2023-01-28T13:53:50.594Z,15.30
2023-01-28T13:56:22.943Z,15.73
2023-01-28T13:59:30.368Z,11.80
2023-01-28T14:02:32.029Z,13.23
2023-01-28T14:05:32.684Z,19.23
2023-01-28T14:08:39.174Z,16.70
2023-01-28T14:11:45.792Z,13.80
2023-01-28T14:14:32.387Z,15.47
2023-01-28T14:17:02.182Z,10.20
2023-01-28T14:19:34.116Z,14.17
2023-01-28T14:22:08.156Z,11.53
2023-01-28T14:24:38.188Z,12.30
2023-01-28T14:27:09.731Z,13.90
2023-01-28T14:29:48.178Z,9.03
2023-01-28T14:32:17.913Z,18.30
2023-01-28T14:34:46.461Z,10.60
2023-01-28T14:37:16.570Z,10.40
2023-01-28T14:39:47.065Z,13.50
2023-01-28T14:42:20.140Z,9.37
2023-01-28T14:44:50.576Z,10.70
2023-01-28T14:47:33.624Z,10.50
2023-01-28T14:50:21.152Z,14.13
2023-01-28T14:53:08.180Z,12.07
2023-01-28T14:55:42.367Z,10.77
2023-01-28T14:58:15.644Z,12.43
2023-01-28T15:00:54.364Z,11.17
2023-01-28T15:03:25.197Z,12.70
2023-01-28T15:06:04.161Z,16.63
2023-01-28T15:08:32.575Z,10.43
2023-01-28T15:11:01.859Z,11.30
2023-01-28T15:13:31.444Z,17.17
2023-01-28T15:16:00.929Z,21.70
2023-01-28T15:18:32.232Z,12.53
2023-01-28T15:21:01.101Z,11.87
2023-01-28T15:23:30.754Z,16.50
2023-01-28T15:25:58.750Z,11.10
2023-01-28T15:28:29.118Z,16.27
2023-01-28T15:30:57.146Z,12.70
2023-01-28T15:33:26.870Z,10.17
2023-01-28T15:35:56.250Z,13.00
2023-01-28T15:38:25.190Z,15.90
2023-01-28T15:40:56.427Z,13.63
2023-01-28T15:43:27.351Z,15.53
2023-01-28T15:45:56.514Z,11.83
2023-01-28T15:48:27.393Z,15.10
2023-01-28T15:51:03.642Z,11.80
2023-01-28T15:53:35.318Z,12.20
2023-01-28T15:56:08.001Z,12.07
2023-01-28T15:58:41.403Z,11.77
2023-01-28T16:01:20.436Z,14.87
2023-01-28T16:04:02.143Z,15.07
2023-01-28T16:06:34.337Z,13.47
2023-01-28T16:09:04.929Z,14.50
2023-01-28T16:11:35.046Z,14.47
2023-01-28T16:14:03.121Z,18.20
2023-01-28T16:16:34.419Z,13.87
2023-01-28T16:19:05.501Z,13.60
2023-01-28T16:21:37.902Z,13.10
2023-01-28T16:24:08.732Z,11.90
2023-01-28T16:26:37.398Z,12.73
2023-01-28T16:29:14.708Z,16.90
2023-01-28T16:31:42.704Z,20.43
2023-01-28T16:34:12.465Z,13.93
2023-01-28T16:36:40.479Z,14.17
2023-01-28T16:39:08.429Z,14.50
2023-01-28T16:41:40.729Z,11.33
2023-01-28T16:44:09.889Z,14.70
2023-01-28T16:46:37.905Z,12.23
2023-01-28T16:49:05.905Z,12.83
2023-01-28T16:51:36.296Z,15.67
2023-01-28T16:54:04.630Z,10.90
2023-01-28T16:56:47.905Z,12.27
2023-01-28T16:59:17.033Z,13.77
2023-01-28T17:01:45.048Z,10.60
2023-01-28T17:04:13.498Z,9.17
2023-01-28T17:06:44.603Z,14.30
2023-01-28T17:09:13.698Z,12.93
2023-01-28T17:11:41.858Z,10.90
2023-01-28T17:14:10.213Z,12.70
2023-01-28T17:16:38.664Z,9.77
2023-01-28T17:19:06.856Z,12.43
2023-01-28T17:21:34.851Z,13.73
2023-01-28T17:24:04.434Z,12.67
2023-01-28T17:26:33.958Z,11.73
2023-01-28T17:29:02.108Z,13.60
2023-01-28T17:31:30.270Z,13.00
2023-01-28T17:33:59.768Z,12.00
2023-01-28T17:36:28.033Z,10.30
2023-01-28T17:38:56.483Z,10.60
2023-01-28T17:41:25.770Z,13.57
2023-01-28T17:43:54.605Z,14.23
2023-01-28T17:46:23.548Z,39.00
2023-01-28T17:48:51.780Z,35.67
2023-01-28T17:51:20.047Z,57.40
2023-01-28T17:53:48.491Z,18.67
2023-01-28T17:56:18.056Z,16.77
2023-01-28T17:58:50.407Z,16.90
2023-01-28T18:01:18.388Z,12.47
2023-01-28T18:03:46.406Z,11.87
2023-01-28T18:06:14.497Z,12.50
2023-01-28T18:08:42.585Z,13.03
2023-01-28T18:11:11.692Z,11.67
2023-01-28T18:13:39.970Z,12.27
2023-01-28T18:16:11.696Z,12.77
2023-01-28T18:18:39.587Z,11.73
2023-01-28T18:21:08.842Z,16.07
2023-01-28T18:23:36.785Z,12.80
2023-01-28T18:26:07.327Z,10.80
2023-01-28T18:28:35.259Z,10.37
2023-01-28T18:31:06.332Z,13.40
2023-01-28T18:33:35.650Z,9.17
2023-01-28T18:36:06.609Z,12.10
2023-01-28T18:38:34.708Z,11.70
2023-01-28T18:41:02.632Z,13.57
2023-01-28T18:43:32.686Z,11.73
2023-01-28T18:46:00.923Z,10.03
2023-01-28T18:48:29.094Z,12.20
2023-01-28T18:50:58.868Z,9.70
2023-01-28T18:53:26.774Z,13.53
2023-01-28T18:55:54.752Z,12.77
2023-01-28T18:58:22.638Z,12.33
2023-01-28T19:00:50.628Z,11.57
2023-01-28T19:03:18.573Z,9.73
2023-01-28T19:05:46.868Z,16.80
2023-01-28T19:08:16.286Z,11.33
2023-01-28T19:10:47.255Z,14.20
2023-01-28T19:13:15.170Z,17.23
2023-01-28T19:15:43.090Z,14.03
2023-01-28T19:18:10.960Z,14.07
2023-01-28T19:20:39.906Z,13.23
2023-01-28T19:23:07.919Z,16.60
2023-01-28T19:25:37.991Z,15.67
2023-01-28T19:28:06.218Z,14.00
2023-01-28T19:30:37.754Z,16.70
2023-01-28T19:33:06.628Z,21.47
2023-01-28T19:35:35.675Z,15.70
2023-01-28T19:38:03.655Z,10.33
2023-01-28T19:40:31.639Z,16.53
2023-01-28T19:43:01.056Z,14.37
2023-01-28T19:45:29.465Z,16.20
2023-01-28T19:47:57.375Z,16.17
2023-01-28T19:50:25.300Z,15.77
2023-01-28T19:52:53.214Z,13.67
2023-01-28T19:55:21.140Z,13.90
2023-01-28T19:57:50.054Z,12.73
2023-01-28T20:00:20.055Z,15.80
2023-01-28T20:02:51.552Z,15.47
2023-01-28T20:05:19.475Z,17.40
2023-01-28T20:07:47.605Z,13.63
2023-01-28T20:10:15.662Z,12.33
2023-01-28T20:12:44.061Z,12.77
2023-01-28T20:15:12.842Z,12.63
2023-01-28T20:17:42.256Z,15.80
2023-01-28T20:20:11.450Z,15.53
2023-01-28T20:22:39.557Z,16.13
2023-01-28T20:25:08.700Z,13.60
2023-01-28T20:27:36.639Z,16.17
2023-01-28T20:30:05.232Z,13.33
2023-01-28T20:32:33.194Z,13.80
2023-01-28T20:35:02.538Z,12.73
2023-01-28T20:37:30.466Z,16.20
2023-01-28T20:39:58.393Z,17.27
2023-01-28T20:42:26.267Z,15.60
2023-01-28T20:44:54.295Z,14.73
2023-01-28T20:47:22.286Z,13.80
2023-01-28T20:49:50.147Z,14.20
2023-01-28T20:52:19.511Z,15.03
2023-01-28T20:54:48.780Z,18.47
2023-01-28T20:57:16.738Z,13.13
2023-01-28T20:59:44.623Z,15.07
2023-01-28T21:02:12.633Z,16.33
2023-01-28T21:04:40.524Z,16.87
2023-01-28T21:07:09.473Z,15.47
2023-01-28T21:09:38.767Z,18.13
2023-01-28T21:12:07.426Z,14.03
2023-01-28T21:14:35.337Z,14.40
2023-01-28T21:17:03.596Z,14.73
2023-01-28T21:19:31.552Z,14.17
2023-01-28T21:21:59.480Z,13.67
2023-01-28T21:24:27.442Z,14.33
2023-01-28T21:26:56.772Z,13.47
2023-01-28T21:29:24.754Z,14.40
2023-01-28T21:31:52.717Z,14.27
2023-01-28T21:34:20.615Z,13.30
2023-01-28T21:36:48.532Z,15.00
2023-01-28T21:39:16.473Z,21.03
2023-01-28T21:41:44.383Z,13.97
2023-01-28T21:44:13.829Z,27.97
2023-01-28T21:46:41.848Z,18.53
2023-01-28T21:49:11.416Z,17.87
2023-01-28T21:51:40.559Z,17.67
2023-01-28T21:54:11.330Z,15.10
2023-01-28T21:56:39.306Z,16.10
2023-01-28T21:59:24.512Z,16.93
2023-01-28T22:01:53.886Z,15.20
2023-01-28T22:04:21.840Z,16.50
2023-01-28T22:06:49.751Z,17.20
2023-01-28T22:09:17.694Z,13.07
2023-01-28T22:11:46.720Z,15.03
2023-01-28T22:14:14.719Z,17.73
2023-01-28T22:16:43.369Z,15.83
2023-01-28T22:19:13.387Z,18.17
2023-01-28T22:21:44.523Z,14.83
2023-01-28T22:24:14.543Z,15.20
2023-01-28T22:26:42.785Z,14.50
2023-01-28T22:29:10.734Z,15.33
2023-01-28T22:31:38.774Z,14.83
2023-01-28T22:34:06.971Z,16.43
2023-01-28T22:36:37.312Z,18.40
2023-01-28T22:39:06.944Z,14.53
2023-01-28T22:41:35.051Z,14.60
2023-01-28T22:44:03.825Z,11.83
2023-01-28T22:46:33.363Z,15.73
2023-01-28T22:49:01.520Z,13.50
2023-01-28T22:51:31.131Z,14.57
2023-01-28T22:54:00.706Z,12.77
2023-01-28T22:56:29.977Z,16.20
2023-01-28T22:58:58.845Z,14.80
2023-01-28T23:01:27.457Z,16.87
2023-01-28T23:03:56.101Z,18.27
2023-01-28T23:06:25.999Z,15.13
2023-01-28T23:08:54.386Z,13.63
2023-01-28T23:11:27.578Z,17.63
2023-01-28T23:14:15.111Z,17.13
2023-01-28T23:17:00.822Z,15.43
2023-01-28T23:19:46.157Z,17.93
2023-01-28T23:22:32.527Z,15.77
2023-01-28T23:25:00.464Z,16.10
2023-01-28T23:27:29.767Z,14.77
2023-01-28T23:29:57.665Z,15.63
2023-01-28T23:32:25.829Z,14.40
2023-01-28T23:34:54.341Z,15.47
2023-01-28T23:37:22.277Z,12.77
2023-01-28T23:39:50.199Z,12.37
2023-01-28T23:42:20.734Z,22.07
2023-01-28T23:44:50.232Z,16.30
2023-01-28T23:47:18.405Z,16.97
2023-01-28T23:49:46.369Z,13.03
2023-01-28T23:52:14.250Z,13.23
2023-01-28T23:54:42.194Z,13.70
2023-01-28T23:57:10.068Z,13.20
2023-01-28T23:59:38.014Z,15.30
